Latest Weather Observations for Inverell RS

IDN60801

Issued at 5:35 pm EDT Sunday 26 October 2014 (issued every 30 minutes, with the page automatically refreshed every 10 minutes)

About weather observations | Map of weather stations | Latest weather observations for NSW | Other Formats
Station Details ID: 056018 Name: INVERELL RESEARCH CENTRE Lat: -29.78 Lon: 151.08 Height: 664.0 m
Data from the previous 72 hours. | See also: Recent months at Inverell RS
Date/Time
EDT
Temp
°C
App
Temp
°C
Dew
Point
Rel
Hum
%
Delta-T
°C
Wind Press
QNH
hPa
Press
MSL
hPa
Rain
since 9 am
mm
Dir
 
Spd
km/h
Gust
km/h
Spd
kts
Gust
kts
26/05:30pm 34.0 29.6 0.5 12 17.1 W 13 22 7 12 1011.6 - 0.0
26/05:00pm 33.9 29.3 1.5 13 16.8 WNW 15 28 8 15 1011.5 - 0.0
26/04:30pm 33.9 29.7 -0.6 11 17.3 WNW 11 17 6 9 1011.7 - 0.0
26/04:00pm 34.8 29.7 0.5 11 17.6 WNW 17 33 9 18 1012.1 - 0.0
26/03:30pm 34.6 30.4 1.6 12 17.2 WNW 13 26 7 14 1012.3 - 0.0
26/03:00pm 35.6 31.0 1.3 11 17.9 WNW 15 30 8 16 1012.7 1010.9 0.0
26/02:30pm 35.0 30.2 0.5 11 17.7 W 15 46 8 25 1013.3 - 0.0
26/02:00pm 34.7 29.9 2.6 13 17.0 W 17 28 9 15 1013.9 - 0.0
26/01:30pm 33.8 28.6 2.7 14 16.4 WNW 19 39 10 21 1014.5 - 0.0
26/01:00pm 33.4 27.5 4.0 16 15.8 N 24 39 13 21 1014.8 - 0.0
26/12:30pm 32.8 28.7 4.4 17 15.3 WNW 15 33 8 18 1015.4 - 0.0
26/12:00pm 31.7 26.9 4.5 18 14.6 NNW 19 30 10 16 1016.0 1014.2 0.0
26/11:30am 31.2 28.8 10.0 27 12.4 N 13 22 7 12 1016.5 - 0.0
26/11:00am 29.7 26.4 9.6 28 11.6 N 17 28 9 15 1017.0 - 0.0
26/10:30am 28.7 26.3 11.5 34 10.2 N 15 20 8 11 1017.5 - 0.0
26/10:00am 27.1 24.1 10.5 35 9.6 N 17 24 9 13 1017.7 - 0.0
26/09:30am 25.3 22.3 10.7 40 8.4 N 17 26 9 14 1017.8 - 0.0
26/09:00am 24.2 22.2 13.9 52 6.2 N 17 26 9 14 1018.0 1016.3 0.0
26/08:30am 23.2 20.9 10.5 44 7.2 N 13 22 7 12 1018.1 - 0.0
26/08:00am 21.6 20.0 10.2 48 6.4 N 9 11 5 6 1018.0 - 0.0
26/07:30am 20.0 18.6 9.4 50 5.8 N 7 9 4 5 1017.9 - 0.0
26/07:00am 19.2 18.6 9.0 51 5.5 N 2 7 1 4 1017.7 - 0.0
26/06:30am 18.0 17.6 8.4 53 5.1 CALM 0 0 0 0 1017.4 - 0.0
26/06:00am 18.8 18.4 8.3 50 5.6 CALM 0 0 0 0 1017.0 1015.3 0.0
26/05:30am 19.2 17.7 8.6 50 5.7 SE 6 9 3 5 1017.0 - 0.0
26/05:00am 18.7 17.8 9.1 53 5.2 SE 4 7 2 4 1017.1 - 0.0
26/04:30am 17.9 17.4 9.4 57 4.6 SE 2 7 1 4 1016.8 - 0.0
26/04:00am 18.5 17.2 9.3 55 5.0 E 6 9 3 5 1016.8 - 0.0
26/03:30am 18.7 18.2 9.5 55 5.0 SSE 2 7 1 4 1016.9 - 0.0
26/03:00am 19.1 18.3 9.8 55 5.1 E 4 7 2 4 1017.1 1015.4 0.0
26/02:30am 19.7 19.7 9.7 52 5.5 CALM 0 0 0 0 1017.4 - 0.0
26/02:00am 20.1 19.0 9.8 51 5.7 ESE 6 9 3 5 1017.7 - 0.0
26/01:30am 19.8 19.9 10.0 53 5.4 CALM 0 0 0 0 1018.2 - 0.0
26/01:00am 20.2 19.3 9.4 50 5.9 SE 4 7 2 4 1018.6 - 0.0
26/12:30am 20.5 19.5 8.7 46 6.4 SE 4 7 2 4 1018.8 - 0.0
26/12:00am 20.8 18.6 7.7 42 7.0 ESE 9 11 5 6 1018.8 1017.2 0.0
 
Date/Time
EDT
Temp
°C
App
Temp
°C
Dew
Point
Rel
Hum
%
Delta-T
°C
Wind Press
QNH
hPa
Press
MSL
hPa
Rain
since 9 am
mm
Dir
 
Spd
km/h
Gust
km/h
Spd
kts
Gust
kts
25/11:30pm 21.0 18.4 6.1 38 7.7 SE 9 13 5 7 1019.0 - 0.0
25/11:00pm 20.9 18.4 4.9 35 8.1 ESE 7 13 4 7 1019.1 - 0.0
25/10:30pm 21.7 18.4 2.3 27 9.4 SE 9 13 5 7 1019.0 - 0.0
25/10:00pm 23.3 20.5 2.3 25 10.3 SSE 6 9 3 5 1018.6 - 0.0
25/09:30pm 23.0 20.0 1.7 24 10.3 SSE 7 11 4 6 1018.4 - 0.0
25/09:00pm 25.5 22.3 1.0 20 11.9 S 7 9 4 5 1018.1 1016.4 0.0
25/08:30pm 25.9 22.7 0.8 19 12.2 SSW 7 11 4 6 1017.9 - 0.0
25/08:00pm 26.1 22.9 0.8 19 12.3 S 7 9 4 5 1017.6 - 0.0
25/07:30pm 26.3 23.3 0.5 18 12.5 SW 6 7 3 4 1017.2 - 0.0
25/07:00pm 28.0 24.3 0.0 16 13.6 SSW 9 11 5 6 1016.9 - 0.0
25/06:30pm 29.7 25.8 -1.7 13 15.0 S 9 15 5 8 1016.6 - 0.0
25/06:00pm 30.8 26.1 -2.0 12 15.7 SSE 13 19 7 10 1016.4 1014.7 0.0
25/05:30pm 31.1 25.8 -3.6 10 16.2 S 15 26 8 14 1016.4 - 0.0
25/05:00pm 31.6 26.3 -3.6 10 16.5 S 15 24 8 13 1016.5 - 0.0
25/04:30pm 31.9 27.1 0.0 13 15.9 S 15 30 8 16 1016.6 - 0.0
25/04:00pm 31.1 26.3 -2.6 11 16.0 SSW 13 26 7 14 1016.6 - 0.0
25/03:30pm 31.8 28.3 3.7 17 14.9 S 11 20 6 11 1016.8 - 0.0
25/03:00pm 31.8 28.6 2.9 16 15.1 S 9 24 5 13 1017.2 1015.6 0.0
25/02:30pm 31.0 27.3 4.7 19 14.1 S 13 26 7 14 1017.8 - 0.0
25/02:00pm 30.3 26.2 4.6 19 13.7 SW 15 28 8 15 1018.3 - 0.0
25/01:30pm 30.1 26.5 5.2 20 13.4 SSW 13 26 7 14 1018.7 - 0.0
25/01:00pm 29.6 27.1 6.7 23 12.6 SSW 9 17 5 9 1019.3 - 0.0
25/12:30pm 28.6 26.3 7.5 26 11.7 WSW 9 13 5 7 1019.7 - 0.0
25/12:00pm 28.0 25.8 10.9 34 10.0 NW 13 19 7 10 1020.2 1018.7 0.0
25/11:30am 26.6 23.5 10.4 36 9.3 NNW 17 28 9 15 1020.9 - 0.0
25/11:00am 25.1 24.1 12.2 44 7.6 N 9 19 5 10 1021.3 - 0.0
25/10:30am 23.3 21.4 11.9 48 6.6 N 13 17 7 9 1021.5 - 0.0
25/10:00am 22.8 21.4 13.4 55 5.6 N 13 19 7 10 1021.7 - 0.0
25/09:30am 20.8 19.2 12.9 60 4.6 NNE 13 17 7 9 1021.8 - 0.0
25/09:00am 20.4 18.6 13.2 63 4.2 N 15 24 8 13 1021.6 1020.0 0.0
25/08:30am 19.5 18.4 13.0 66 3.8 N 11 19 6 10 1021.7 - 0.0
25/08:00am 18.4 17.6 12.9 70 3.2 NE 9 15 5 8 1021.6 - 0.0
25/07:30am 17.1 16.8 12.7 75 2.5 NNE 6 9 3 5 1021.3 - 0.0
25/07:00am 15.7 16.4 12.1 79 2.0 CALM 0 0 0 0 1021.1 - 0.0
25/06:30am 14.6 15.1 11.5 82 1.7 CALM 0 4 0 2 1020.8 - 0.0
25/06:00am 14.6 15.0 11.3 80 1.8 CALM 0 0 0 0 1020.3 1018.6 0.0
25/05:30am 14.9 15.3 11.3 79 2.0 CALM 0 0 0 0 1019.9 - 0.0
25/05:00am 14.9 15.2 10.9 77 2.2 CALM 0 4 0 2 1019.7 - 0.0
25/04:30am 15.5 14.7 11.2 75 2.4 N 6 9 3 5 1019.4 - 0.0
25/04:00am 16.3 15.2 10.7 69 3.1 NNE 7 9 4 5 1019.2 - 0.0
25/03:30am 16.3 15.2 10.7 69 3.1 N 7 9 4 5 1019.1 - 0.0
25/03:00am 16.8 15.7 10.6 67 3.4 N 7 9 4 5 1019.2 1017.5 0.0
25/02:30am 16.7 15.7 11.1 69 3.1 N 7 11 4 6 1019.4 - 0.0
25/02:00am 18.7 17.2 10.6 59 4.5 NNW 9 13 5 7 1019.6 - 0.0
25/01:30am 19.9 18.5 10.8 55 5.1 N 9 15 5 8 1019.8 - 0.0
25/01:00am 19.9 18.5 11.0 56 5.0 NNW 9 13 5 7 1020.6 - 0.0
25/12:30am 19.3 18.6 11.3 60 4.5 SE 6 9 3 5 1021.0 - 0.0
25/12:00am 19.3 17.9 9.6 53 5.3 N 7 9 4 5 1020.6 1018.8 0.0
 
Date/Time
EDT
Temp
°C
App
Temp
°C
Dew
Point
Rel
Hum
%
Delta-T
°C
Wind Press
QNH
hPa
Press
MSL
hPa
Rain
since 9 am
mm
Dir
 
Spd
km/h
Gust
km/h
Spd
kts
Gust
kts
24/11:30pm 19.0 17.5 9.0 52 5.4 N 7 11 4 6 1020.3 - 0.0
24/11:00pm 19.4 17.9 8.4 49 5.9 NNE 6 7 3 4 1020.2 - 0.0
24/10:30pm 19.8 18.1 8.2 47 6.2 N 7 9 4 5 1020.2 - 0.0
24/10:00pm 20.9 19.2 8.3 44 6.8 NNE 7 11 4 6 1020.1 - 0.0
24/09:30pm 21.5 19.7 8.1 42 7.2 N 7 7 4 4 1020.0 - 0.0
24/09:00pm 22.7 21.1 7.9 38 8.0 N 6 7 3 4 1019.8 1018.1 0.0
24/08:30pm 22.6 21.1 8.5 40 7.7 N 6 7 3 4 1019.6 - 0.0
24/08:00pm 23.9 22.3 8.9 38 8.3 NE 7 11 4 6 1019.5 - 0.0
24/07:30pm 24.2 22.8 9.4 39 8.3 NNE 7 9 4 5 1019.3 - 0.0
24/07:00pm 25.1 23.9 10.4 39 8.4 ENE 7 9 4 5 1019.1 - 0.0
24/06:30pm 26.6 25.6 10.2 35 9.4 NE 6 11 3 6 1018.8 - 0.0
24/06:00pm 27.7 25.8 8.9 30 10.6 ENE 9 13 5 7 1018.6 1016.8 0.0
24/05:30pm 27.8 25.8 8.8 30 10.7 ENE 9 15 5 8 1018.6 - 0.0
24/05:00pm 27.9 26.0 9.0 30 10.7 E 9 15 5 8 1018.7 - 0.0
24/04:30pm 27.8 26.0 9.3 31 10.5 E 9 15 5 8 1019.0 - 0.0
24/04:00pm 27.9 26.1 9.5 31 10.5 NE 9 17 5 9 1019.3 - 0.0
24/03:30pm 27.6 26.4 10.3 34 10.0 E 7 13 4 7 1019.8 - 0.0
24/03:00pm 25.9 24.4 10.4 37 8.9 E 9 15 5 8 1020.4 1018.8 0.0
24/02:30pm 26.1 24.6 10.7 38 8.9 E 9 13 5 7 1020.9 - 0.0
24/02:00pm 25.1 23.3 10.9 41 8.2 E 11 13 6 7 1021.3 - 0.0
24/01:30pm 24.7 23.7 11.0 42 7.9 ESE 7 11 4 6 1021.7 - 0.0
24/01:00pm 25.0 24.1 11.2 42 8.0 SE 7 11 4 6 1022.0 - 0.0
24/12:30pm 24.3 22.8 10.6 42 7.8 E 9 13 5 7 1022.2 - 0.0
24/12:00pm 24.8 24.0 11.1 42 7.9 ENE 6 9 3 5 1022.7 1021.2 0.0
24/11:30am 23.7 22.8 11.4 46 7.1 NNE 7 11 4 6 1023.0 - 0.0
24/11:00am 24.1 23.2 11.3 44 7.4 NNE 7 15 4 8 1023.2 - 0.0
24/10:30am 21.8 20.0 10.8 49 6.2 N 11 19 6 10 1023.5 - 0.0
24/10:00am 21.4 19.7 11.2 52 5.8 N 11 17 6 9 1023.8 - 0.0
24/09:30am 20.5 18.0 10.9 54 5.4 N 15 24 8 13 1023.6 - 0.0
24/09:00am 21.1 18.9 10.8 51 5.8 N 13 20 7 11 1023.9 1022.2 0.0
24/08:30am 19.8 18.6 10.2 54 5.3 NNE 7 11 4 6 1023.9 - 0.0
24/08:00am 18.0 16.4 8.8 55 4.9 NNE 7 11 4 6 1023.6 - 0.0
24/07:30am 16.7 16.9 10.7 67 3.3 CALM 0 0 0 0 1023.2 - 0.0
24/07:00am 15.0 14.9 9.6 70 2.9 CALM 0 0 0 0 1022.5 - 0.0
24/06:30am 13.8 13.4 8.2 69 2.9 CALM 0 0 0 0 1022.3 - 0.0
24/06:00am 14.2 12.4 8.0 66 3.2 SSE 7 9 4 5 1021.8 1020.1 0.0
24/05:30am 14.0 12.9 8.6 70 2.8 S 4 6 2 3 1021.3 - 0.0
24/05:00am 14.2 13.9 8.8 70 2.8 CALM 0 7 0 4 1020.9 - 0.0
24/04:30am 14.0 12.8 9.5 74 2.4 SSE 6 7 3 4 1020.7 - 0.0
24/04:00am 13.8 12.1 9.9 77 2.1 SE 9 15 5 8 1020.6 - 0.0
24/03:30am 14.0 12.7 9.9 76 2.2 SE 7 9 4 5 1020.7 - 0.0
24/03:00am 14.6 13.2 9.7 72 2.6 SSE 7 9 4 5 1021.0 1019.3 0.0
24/02:30am 15.0 13.7 10.0 72 2.7 SSE 7 9 4 5 1021.2 - 0.0
24/02:00am 16.0 16.2 10.5 70 3.0 CALM 0 0 0 0 1021.6 - 0.0
24/01:30am 15.5 15.4 10.9 74 2.5 SSW 2 6 1 3 1022.0 - 0.0
24/01:00am 15.3 15.7 11.3 77 2.2 CALM 0 0 0 0 1022.5 - 0.0
24/12:30am 17.5 15.9 10.2 62 4.0 W 9 11 5 6 1022.8 - 0.0
24/12:00am 17.1 15.0 11.0 67 3.4 WSW 13 24 7 13 1022.8 1021.2 0.0
 
Date/Time
EDT
Temp
°C
App
Temp
°C
Dew
Point
Rel
Hum
%
Delta-T
°C
Wind Press
QNH
hPa
Press
MSL
hPa
Rain
since 9 am
mm
Dir
 
Spd
km/h
Gust
km/h
Spd
kts
Gust
kts
23/11:30pm 16.1 16.5 11.4 73 2.6 CALM 0 0 0 0 1022.5 - 0.0
23/11:00pm 16.4 16.9 11.6 73 2.7 CALM 0 0 0 0 1022.5 - 0.0
23/10:30pm 16.8 16.9 11.6 71 2.9 NE 2 6 1 3 1022.5 - 0.0
23/10:00pm 16.8 17.2 11.4 70 3.0 CALM 0 0 0 0 1021.9 - 0.0
23/09:30pm 17.4 17.9 11.7 69 3.2 CALM 0 0 0 0 1021.7 - 0.0
23/09:00pm 17.7 17.0 11.5 67 3.5 NNE 6 9 3 5 1021.6 1020.0 0.0
23/08:30pm 18.4 17.5 11.3 63 4.0 NE 7 11 4 6 1021.5 - 0.0
23/08:00pm 18.6 16.9 11.1 61 4.2 ENE 11 15 6 8 1021.2 - 0.0
23/07:30pm 19.3 16.8 9.6 53 5.3 E 13 22 7 12 1020.9 - 0.0
23/07:00pm 19.9 16.6 9.5 51 5.7 E 17 26 9 14 1020.6 - 0.0
23/06:30pm 21.4 16.7 9.4 46 6.6 E 24 33 13 18 1020.3 - 0.0
23/06:00pm 26.1 24.2 7.4 30 10.2 S 7 15 4 8 1018.7 1017.0 0.0

Other Formats:

Comma delimited format used in spreadsheet applications
http://www.bom.gov.au/fwo/IDN60801/IDN60801.94541.axf

JavaScript Object Notation format (JSON) in row-major order
http://www.bom.gov.au/fwo/IDN60801/IDN60801.94541.json